sensor_id;sensor_type;location;lat;lon;timestamp;pressure;altitude;pressure_sealevel;temperature;humidity
49065;BME280;34877;27.062;-82.386;2023-04-28T12:52:19;101406.08;;;13.59;89.61
49065;BME280;34877;27.062;-82.386;2023-04-28T13:02:21;101431.71;;;15.03;81.92
49065;BME280;34877;27.062;-82.386;2023-04-28T13:12:27;101444.69;;;15.55;80.02
49065;BME280;34877;27.062;-82.386;2023-04-28T13:22:31;101453.62;;;15.69;80.12
49065;BME280;34877;27.062;-82.386;2023-04-28T13:32:37;101463.74;;;16.19;79.95
49065;BME280;34877;27.062;-82.386;2023-04-28T13:42:42;101488.71;;;15.54;80.65
49065;BME280;34877;27.062;-82.386;2023-04-28T13:52:47;101496.58;;;15.98;82.41
49065;BME280;34877;27.062;-82.386;2023-04-28T14:02:51;101493.62;;;15.92;86.09
49065;BME280;34877;27.062;-82.386;2023-04-28T14:12:56;101508.49;;;15.85;87.35
49065;BME280;34877;27.062;-82.386;2023-04-28T14:23:01;101517.97;;;16.31;87.16
49065;BME280;34877;27.062;-82.386;2023-04-28T14:33:06;101506.72;;;15.89;86.85
49065;BME280;34877;27.062;-82.386;2023-04-28T14:43:12;101499.14;;;16.22;87.14
49065;BME280;34877;27.062;-82.386;2023-04-28T14:53:17;101523.29;;;16.05;87.89
49065;BME280;34877;27.062;-82.386;2023-04-28T15:03:22;101528.49;;;16.16;88.98
49065;BME280;34877;27.062;-82.386;2023-04-28T15:13:27;101491.91;;;16.37;88.88
49065;BME280;34877;27.062;-82.386;2023-04-28T15:23:32;101331.92;;;16.22;89.01
49065;BME280;34877;27.062;-82.386;2023-04-28T15:33:37;101412.56;;;15.94;88.98
49065;BME280;34877;27.062;-82.386;2023-04-28T15:43:42;101342.25;;;16.50;88.00
49065;BME280;34877;27.062;-82.386;2023-04-28T15:53:47;101299.18;;;15.88;88.78
49065;BME280;34877;27.062;-82.386;2023-04-28T16:03:52;101257.70;;;16.15;89.29
49065;BME280;34877;27.062;-82.386;2023-04-28T16:13:57;101216.97;;;16.09;89.24
49065;BME280;34877;27.062;-82.386;2023-04-28T16:24:02;101190.15;;;15.98;89.66
49065;BME280;34877;27.062;-82.386;2023-04-28T16:34:07;101179.69;;;16.48;90.30
49065;BME280;34877;27.062;-82.386;2023-04-28T16:44:12;101184.26;;;16.49;90.84
49065;BME280;34877;27.062;-82.386;2023-04-28T16:54:17;101202.84;;;16.34;91.09
49065;BME280;34877;27.062;-82.386;2023-04-28T17:04:23;101200.69;;;16.85;91.80
49065;BME280;34877;27.062;-82.386;2023-04-28T17:14:26;101199.57;;;16.47;92.52
49065;BME280;34877;27.062;-82.386;2023-04-28T17:24:32;101211.82;;;16.53;93.53
49065;BME280;34877;27.062;-82.386;2023-04-28T17:34:37;101207.05;;;16.39;92.74
49065;BME280;34877;27.062;-82.386;2023-04-28T17:44:41;101205.96;;;16.69;93.01
49065;BME280;34877;27.062;-82.386;2023-04-28T17:54:48;101212.99;;;16.27;93.73
49065;BME280;34877;27.062;-82.386;2023-04-28T18:04:54;101232.27;;;16.41;95.12
49065;BME280;34877;27.062;-82.386;2023-04-28T18:14:56;101240.91;;;16.84;93.92
49065;BME280;34877;27.062;-82.386;2023-04-28T18:25:14;101231.90;;;16.95;94.85
49065;BME280;34877;27.062;-82.386;2023-04-28T18:35:26;101221.97;;;16.73;96.50
49065;BME280;34877;27.062;-82.386;2023-04-28T18:45:42;101226.43;;;16.62;96.03
49065;BME280;34877;27.062;-82.386;2023-04-28T18:56:05;101234.11;;;16.95;96.77
49065;BME280;34877;27.062;-82.386;2023-04-28T19:06:12;101228.27;;;16.63;97.09
49065;BME280;34877;27.062;-82.386;2023-04-28T19:16:20;101221.08;;;16.88;96.19
49065;BME280;34877;27.062;-82.386;2023-04-28T19:26:22;101224.93;;;17.17;98.36
49065;BME280;34877;27.062;-82.386;2023-04-28T19:36:28;101218.44;;;16.64;96.96
49065;BME280;34877;27.062;-82.386;2023-04-28T19:46:33;101222.20;;;16.94;97.00
49065;BME280;34877;27.062;-82.386;2023-04-28T19:56:37;101202.08;;;17.04;97.83
49065;BME280;34877;27.062;-82.386;2023-04-28T20:06:42;101211.44;;;17.78;100.00
49065;BME280;34877;27.062;-82.386;2023-04-28T20:16:47;101240.44;;;17.91;100.00
49065;BME280;34877;27.062;-82.386;2023-04-28T20:26:52;101231.47;;;17.53;100.00
49065;BME280;34877;27.062;-82.386;2023-04-28T20:36:58;101228.07;;;17.46;100.00
49065;BME280;34877;27.062;-82.386;2023-04-28T20:47:03;101224.52;;;18.17;100.00
49065;BME280;34877;27.062;-82.386;2023-04-28T20:57:07;101232.70;;;17.56;100.00
49065;BME280;34877;27.062;-82.386;2023-04-28T21:07:12;101233.25;;;17.56;100.00
49065;BME280;34877;27.062;-82.386;2023-04-28T21:17:17;101242.60;;;17.53;100.00
49065;BME280;34877;27.062;-82.386;2023-04-28T21:27:44;101235.93;;;17.62;100.00
49065;BME280;34877;27.062;-82.386;2023-04-28T21:37:47;101230.74;;;17.80;100.00
49065;BME280;34877;27.062;-82.386;2023-04-28T21:47:53;101231.40;;;18.06;100.00
49065;BME280;34877;27.062;-82.386;2023-04-28T21:57:57;101206.17;;;17.68;100.00
49065;BME280;34877;27.062;-82.386;2023-04-28T22:08:02;101181.84;;;17.93;100.00
49065;BME280;34877;27.062;-82.386;2023-04-28T22:18:07;101158.69;;;17.94;100.00
49065;BME280;34877;27.062;-82.386;2023-04-28T22:28:12;101150.52;;;17.60;100.00
49065;BME280;34877;27.062;-82.386;2023-04-28T22:38:17;101148.37;;;17.55;100.00
49065;BME280;34877;27.062;-82.386;2023-04-28T22:48:22;101120.81;;;17.08;100.00
49065;BME280;34877;27.062;-82.386;2023-04-28T22:58:28;101060.83;;;17.93;100.00
49065;BME280;34877;27.062;-82.386;2023-04-28T23:08:32;100985.21;;;17.30;100.00
49065;BME280;34877;27.062;-82.386;2023-04-28T23:18:37;100937.00;;;17.26;100.00
49065;BME280;34877;27.062;-82.386;2023-04-28T23:28:41;100949.04;;;17.52;100.00
49065;BME280;34877;27.062;-82.386;2023-04-28T23:38:47;100993.65;;;16.69;100.00
49065;BME280;34877;27.062;-82.386;2023-04-28T23:48:53;101052.65;;;15.67;100.00
49065;BME280;34877;27.062;-82.386;2023-04-28T23:58:57;101091.96;;;15.36;100.00
